Current Weather

Mesquite Metro

Mesquite, Texas (KHQZ)

Report from: Saturday, February 24, 2024 11:50 AM CST
Current time: Saturday, February 24, 2024 12:57 PM CST

Nearby weather – Weather history – Daily summaries
Weather forecast

Temperature24.0°C (75.2°F)
Dew point1.0°C (33.8°F)
Winds Calm
Visibility10 mi. (16.1 km)
Clouds Sky clear
Altimeter30.18 in.Hg (1022 mB)
Relative humidity22 %
Density altitude854 ft. (260 m)
Flight conditions Visual Meteorological Conditions
Raw dataKHQZ 241750Z 00000KT 10SM CLR 24/01 A3018
An error has occurred. This application may no longer respond until reloaded. Reload 🗙